createdAt,value
2023-02-23T00:01:25.837Z,14.65
2023-02-23T00:03:56.206Z,14.82
2023-02-23T00:06:24.710Z,14.05
2023-02-23T00:08:52.341Z,14.50
2023-02-23T00:11:20.234Z,13.88
2023-02-23T00:13:50.038Z,15.15
2023-02-23T00:16:22.681Z,16.95
2023-02-23T00:18:53.629Z,14.43
2023-02-23T00:21:29.268Z,13.88
2023-02-23T00:24:00.952Z,13.43
2023-02-23T00:26:31.565Z,12.80
2023-02-23T00:28:58.557Z,13.30
2023-02-23T00:31:27.259Z,14.18
2023-02-23T00:33:56.912Z,14.85
2023-02-23T00:36:26.631Z,15.05
2023-02-23T00:39:00.346Z,15.90
2023-02-23T00:41:30.804Z,15.93
2023-02-23T00:43:59.322Z,15.80
2023-02-23T00:46:28.642Z,15.75
2023-02-23T00:48:57.086Z,16.33
2023-02-23T00:51:32.508Z,16.13
2023-02-23T00:54:00.579Z,16.30
2023-02-23T00:56:27.920Z,16.15
2023-02-23T00:58:55.546Z,16.30
2023-02-23T01:01:23.273Z,15.02
2023-02-23T01:03:50.731Z,15.82
2023-02-23T01:06:17.681Z,14.63
2023-02-23T01:08:49.062Z,16.05
2023-02-23T01:11:21.786Z,16.00
2023-02-23T01:13:52.071Z,16.00
2023-02-23T01:16:21.314Z,17.02
2023-02-23T01:18:48.951Z,15.98
2023-02-23T01:21:22.808Z,16.00
2023-02-23T01:23:50.753Z,16.63
2023-02-23T01:26:19.170Z,15.43
2023-02-23T01:28:57.949Z,17.67
2023-02-23T01:31:26.024Z,17.70
2023-02-23T01:34:01.647Z,16.45
2023-02-23T01:36:32.611Z,16.05
2023-02-23T01:39:00.114Z,15.40
2023-02-23T01:41:32.815Z,15.20
2023-02-23T01:44:20.039Z,15.38
2023-02-23T01:46:49.266Z,15.48
2023-02-23T01:49:23.504Z,17.80
2023-02-23T01:54:33.193Z,15.80
2023-02-23T01:57:02.722Z,20.73
2023-02-23T01:59:41.925Z,20.75
2023-02-23T02:02:09.424Z,21.05
2023-02-23T02:04:44.686Z,23.23
2023-02-23T02:07:16.050Z,22.02
2023-02-23T02:10:04.286Z,22.63
2023-02-23T02:12:31.043Z,23.75
2023-02-23T02:14:59.987Z,23.92
2023-02-23T02:17:41.685Z,22.95
2023-02-23T02:20:52.277Z,23.98
2023-02-23T02:23:53.414Z,23.05
2023-02-23T02:26:24.252Z,23.77
2023-02-23T02:29:28.748Z,23.63
2023-02-23T02:32:24.527Z,22.50
2023-02-23T02:35:18.932Z,22.83
2023-02-23T02:38:03.825Z,22.08
2023-02-23T02:43:11.519Z,20.63
2023-02-23T02:45:44.520Z,21.95
2023-02-23T02:48:14.296Z,21.95
2023-02-23T02:50:52.974Z,21.80
2023-02-23T02:53:47.394Z,21.02
2023-02-23T02:56:19.782Z,20.48
2023-02-23T02:58:50.066Z,21.40
2023-02-23T03:01:36.868Z,21.27
2023-02-23T03:04:39.436Z,21.63
2023-02-23T03:07:39.192Z,20.98
2023-02-23T03:10:38.438Z,22.05
2023-02-23T03:13:29.503Z,24.52
2023-02-23T03:16:47.267Z,23.08
2023-02-23T03:19:42.304Z,21.58
2023-02-23T03:22:36.877Z,22.77
2023-02-23T03:25:25.379Z,24.55
2023-02-23T03:28:50.117Z,22.73
2023-02-23T03:32:03.160Z,21.25
2023-02-23T03:35:14.249Z,22.42
2023-02-23T03:38:06.777Z,20.70
2023-02-23T03:40:56.431Z,22.02
2023-02-23T03:43:55.722Z,21.98
2023-02-23T03:46:43.976Z,22.25
2023-02-23T03:49:31.649Z,21.38
2023-02-23T03:52:22.542Z,21.73
2023-02-23T03:55:14.539Z,21.80
2023-02-23T03:58:02.262Z,21.70
2023-02-23T04:00:51.080Z,21.80
2023-02-23T04:03:38.259Z,23.15
2023-02-23T04:06:28.584Z,22.10
2023-02-23T04:09:18.285Z,22.52
2023-02-23T04:12:25.844Z,25.00
2023-02-23T04:15:01.680Z,23.30
2023-02-23T04:17:30.048Z,23.17
2023-02-23T04:19:57.098Z,23.98
2023-02-23T04:22:24.358Z,23.13
2023-02-23T04:24:51.442Z,23.83
2023-02-23T04:27:18.362Z,23.65
2023-02-23T04:29:45.348Z,24.35
2023-02-23T04:32:18.636Z,23.20
2023-02-23T04:34:45.570Z,23.40
2023-02-23T04:37:12.713Z,25.10
2023-02-23T04:39:39.710Z,23.30
2023-02-23T04:42:06.430Z,25.40
2023-02-23T04:44:33.095Z,25.23
2023-02-23T04:46:59.772Z,25.48
2023-02-23T04:49:26.502Z,23.80
2023-02-23T04:51:53.154Z,25.48
2023-02-23T04:54:19.826Z,24.50
2023-02-23T04:56:46.544Z,23.73
2023-02-23T04:59:13.315Z,25.90
2023-02-23T05:01:40.256Z,26.05
2023-02-23T05:04:07.010Z,27.25
2023-02-23T05:06:34.213Z,25.92
2023-02-23T05:09:00.879Z,27.85
2023-02-23T05:11:27.819Z,28.33
2023-02-23T05:13:54.622Z,26.60
2023-02-23T05:16:21.559Z,25.27
2023-02-23T05:18:48.430Z,24.70
2023-02-23T05:21:15.424Z,25.15
2023-02-23T05:23:42.258Z,25.25
2023-02-23T05:26:12.147Z,29.30
2023-02-23T05:28:40.470Z,25.95
2023-02-23T05:31:08.131Z,26.42
2023-02-23T05:33:42.277Z,24.83
2023-02-23T05:36:11.381Z,25.05
2023-02-23T05:38:39.724Z,25.27
2023-02-23T05:41:08.087Z,26.25
2023-02-23T05:43:35.160Z,25.88
2023-02-23T05:46:02.059Z,24.80
2023-02-23T05:48:29.508Z,26.40
2023-02-23T05:51:01.936Z,27.10
2023-02-23T05:53:28.693Z,26.48
2023-02-23T05:55:55.596Z,26.60
2023-02-23T05:58:22.485Z,26.00
2023-02-23T06:00:49.224Z,26.25
2023-02-23T06:03:16.022Z,26.35
2023-02-23T06:05:43.134Z,26.75
2023-02-23T06:08:09.810Z,26.35
2023-02-23T06:10:36.469Z,27.17
2023-02-23T06:13:03.914Z,24.30
2023-02-23T06:15:30.911Z,25.02
2023-02-23T06:17:57.568Z,23.80
2023-02-23T06:20:24.296Z,23.67
2023-02-23T06:22:50.956Z,25.13
2023-02-23T06:25:17.768Z,24.23
2023-02-23T06:27:45.411Z,22.42
2023-02-23T06:30:12.755Z,22.48
2023-02-23T06:32:39.490Z,23.48
2023-02-23T06:35:07.362Z,23.02
2023-02-23T06:37:35.251Z,25.13
2023-02-23T06:40:03.346Z,25.27
2023-02-23T06:42:30.031Z,24.35
2023-02-23T06:44:56.676Z,24.83
2023-02-23T06:47:23.407Z,26.98
2023-02-23T06:49:50.061Z,25.88
2023-02-23T06:52:16.788Z,26.38
2023-02-23T06:54:43.647Z,26.80
2023-02-23T06:57:11.278Z,26.38
2023-02-23T06:59:39.190Z,27.38
2023-02-23T07:02:06.268Z,26.70
2023-02-23T07:04:33.232Z,28.33
2023-02-23T07:06:59.915Z,26.00
2023-02-23T07:09:26.723Z,27.30
2023-02-23T07:11:53.382Z,27.55
2023-02-23T07:14:26.356Z,26.95
2023-02-23T07:16:54.166Z,25.77
2023-02-23T07:19:20.926Z,25.98
2023-02-23T07:21:47.797Z,23.75
2023-02-23T07:24:14.601Z,26.88
2023-02-23T07:26:43.497Z,26.73
2023-02-23T07:29:12.464Z,23.25
2023-02-23T07:31:40.114Z,25.10
2023-02-23T07:34:08.011Z,24.58
2023-02-23T07:36:35.540Z,25.50
2023-02-23T07:39:03.165Z,24.02
2023-02-23T07:41:29.817Z,24.05
2023-02-23T07:43:56.628Z,23.40
2023-02-23T07:46:23.414Z,24.55
2023-02-23T07:48:50.090Z,25.48
2023-02-23T07:51:17.757Z,23.67
2023-02-23T07:53:45.088Z,24.90
2023-02-23T07:56:12.990Z,24.38
2023-02-23T07:58:44.264Z,24.60
2023-02-23T08:01:12.362Z,23.95
2023-02-23T08:03:39.352Z,23.67
2023-02-23T08:06:06.889Z,25.65
2023-02-23T08:08:35.285Z,24.42
2023-02-23T08:11:04.689Z,22.13
2023-02-23T08:13:31.856Z,21.90
2023-02-23T08:15:59.036Z,22.08
2023-02-23T08:18:26.360Z,21.77
2023-02-23T08:21:02.368Z,22.17
2023-02-23T08:23:33.634Z,25.90
2023-02-23T08:26:01.789Z,23.23
2023-02-23T08:28:29.645Z,21.98
2023-02-23T08:30:56.991Z,22.98
2023-02-23T08:33:24.079Z,24.33
2023-02-23T08:35:53.511Z,22.15
2023-02-23T08:38:20.364Z,24.80
2023-02-23T08:40:47.404Z,22.02
2023-02-23T08:43:14.184Z,22.77
2023-02-23T08:45:40.914Z,22.88
2023-02-23T08:48:09.031Z,19.73
2023-02-23T08:50:35.895Z,21.20
2023-02-23T08:53:02.792Z,33.97
2023-02-23T08:55:29.477Z,21.25
2023-02-23T08:57:56.180Z,23.98
2023-02-23T09:00:23.362Z,22.45
2023-02-23T09:02:50.115Z,21.15
2023-02-23T09:05:17.133Z,22.63
2023-02-23T09:07:47.302Z,21.10
2023-02-23T09:10:16.356Z,28.98
2023-02-23T09:12:43.176Z,23.10
2023-02-23T09:15:10.305Z,20.33
2023-02-23T09:17:37.916Z,19.98
2023-02-23T09:20:05.696Z,19.67
2023-02-23T09:22:32.713Z,18.45
2023-02-23T09:24:59.578Z,17.73
2023-02-23T09:27:26.444Z,17.30
2023-02-23T09:29:53.179Z,19.23
2023-02-23T09:32:19.962Z,17.27
2023-02-23T09:34:48.607Z,18.42
2023-02-23T09:37:15.882Z,18.20
2023-02-23T09:39:43.606Z,16.70
2023-02-23T09:42:20.037Z,17.98
2023-02-23T09:44:57.647Z,19.98
2023-02-23T09:47:30.883Z,16.75
2023-02-23T09:50:02.993Z,15.98
2023-02-23T09:52:40.041Z,16.35
2023-02-23T09:55:09.782Z,18.48
2023-02-23T09:57:42.938Z,16.75
2023-02-23T10:00:27.448Z,17.52
2023-02-23T10:03:04.361Z,16.38
2023-02-23T10:05:35.680Z,25.15
2023-02-23T10:08:18.465Z,14.98
2023-02-23T10:10:50.949Z,13.70
2023-02-23T10:13:42.032Z,13.23
2023-02-23T10:16:27.469Z,13.50
2023-02-23T10:19:09.795Z,13.88
2023-02-23T10:21:44.815Z,12.93
2023-02-23T10:24:25.401Z,11.73
2023-02-23T10:27:06.351Z,13.73
2023-02-23T10:29:39.514Z,12.90
2023-02-23T10:32:22.479Z,16.10
2023-02-23T10:34:54.085Z,12.43
2023-02-23T10:37:21.103Z,13.18
2023-02-23T10:39:49.865Z,12.52
2023-02-23T10:42:23.144Z,12.00
2023-02-23T10:44:50.304Z,10.85
2023-02-23T10:47:21.250Z,12.65
2023-02-23T10:49:53.247Z,12.02
2023-02-23T10:52:33.630Z,11.55
2023-02-23T10:55:04.449Z,10.75
2023-02-23T10:57:34.140Z,11.45
2023-02-23T11:00:03.768Z,11.68
2023-02-23T11:02:30.975Z,12.35
2023-02-23T11:04:58.908Z,11.00
2023-02-23T11:07:32.436Z,11.30
2023-02-23T11:10:18.826Z,13.20
2023-02-23T11:12:45.538Z,34.72
2023-02-23T11:15:32.153Z,10.90
2023-02-23T11:18:04.742Z,14.68
2023-02-23T11:20:35.684Z,12.40
2023-02-23T11:23:17.424Z,10.45
2023-02-23T11:25:45.876Z,10.52
2023-02-23T11:28:22.402Z,10.10
2023-02-23T11:30:49.821Z,11.02
2023-02-23T11:33:31.491Z,10.90
2023-02-23T11:36:38.959Z,10.18
2023-02-23T11:39:10.413Z,10.18
2023-02-23T11:41:37.262Z,10.98
2023-02-23T11:44:06.365Z,10.20
2023-02-23T11:46:38.080Z,9.40
2023-02-23T11:49:14.873Z,11.60
2023-02-23T11:51:49.196Z,9.43
2023-02-23T11:54:34.006Z,8.43
2023-02-23T11:57:02.732Z,9.38
2023-02-23T11:59:33.928Z,10.60
2023-02-23T12:02:23.103Z,7.60
2023-02-23T12:05:16.098Z,8.38
2023-02-23T12:08:04.414Z,11.95
2023-02-23T12:10:55.569Z,8.05
2023-02-23T12:13:30.729Z,7.50
2023-02-23T12:16:04.973Z,7.28
2023-02-23T12:18:44.172Z,7.93
2023-02-23T12:21:41.979Z,7.07
2023-02-23T12:24:16.581Z,6.40
2023-02-23T12:26:55.501Z,6.50
2023-02-23T12:29:39.198Z,6.57
2023-02-23T12:32:17.969Z,7.32
2023-02-23T12:34:54.241Z,8.13
2023-02-23T12:37:29.067Z,7.90
2023-02-23T12:40:28.026Z,8.70
2023-02-23T12:43:01.570Z,6.88
2023-02-23T12:45:39.707Z,6.75
2023-02-23T12:48:15.678Z,7.32
2023-02-23T12:50:53.669Z,7.60
2023-02-23T12:53:32.524Z,7.10
2023-02-23T12:56:22.134Z,6.45
2023-02-23T12:59:19.768Z,7.70
2023-02-23T13:02:08.414Z,7.88
2023-02-23T13:05:15.883Z,8.65
2023-02-23T13:07:52.800Z,7.55
2023-02-23T13:10:38.585Z,15.00
2023-02-23T13:13:17.488Z,12.57
2023-02-23T13:16:05.700Z,6.97
2023-02-23T13:18:55.639Z,6.50
2023-02-23T13:21:58.163Z,6.38
2023-02-23T13:24:35.128Z,7.82
2023-02-23T13:27:23.797Z,6.65
2023-02-23T13:29:55.178Z,7.03
2023-02-23T13:32:32.451Z,7.00
2023-02-23T13:35:05.361Z,7.18
2023-02-23T13:37:41.043Z,7.88
2023-02-23T13:40:45.701Z,6.72
2023-02-23T13:43:52.220Z,6.85
2023-02-23T13:46:52.739Z,8.30
2023-02-23T13:49:41.946Z,7.30
2023-02-23T13:52:38.224Z,6.90
2023-02-23T13:55:24.936Z,6.22
2023-02-23T13:57:53.406Z,6.13
2023-02-23T14:00:21.643Z,5.63
2023-02-23T14:02:49.442Z,7.13
2023-02-23T14:05:25.876Z,9.27
2023-02-23T14:07:59.020Z,6.22
2023-02-23T14:10:29.609Z,5.95
2023-02-23T14:13:14.477Z,6.50
2023-02-23T14:18:21.006Z,9.05
2023-02-23T14:20:58.770Z,6.80
2023-02-23T14:23:26.269Z,6.50
2023-02-23T14:26:09.376Z,5.85
2023-02-23T14:28:39.210Z,11.90
2023-02-23T14:31:16.040Z,6.38
2023-02-23T14:33:43.001Z,5.18
2023-02-23T14:36:22.101Z,25.90
2023-02-23T14:39:02.952Z,7.82
2023-02-23T14:41:41.025Z,5.82
2023-02-23T14:44:29.032Z,5.43
2023-02-23T14:47:07.144Z,5.82
2023-02-23T14:49:43.452Z,5.55
2023-02-23T14:52:19.736Z,5.50
2023-02-23T14:54:46.770Z,5.75
2023-02-23T14:57:36.161Z,5.43
2023-02-23T15:00:27.651Z,14.30
2023-02-23T15:03:04.584Z,12.57
2023-02-23T15:05:42.755Z,7.78
2023-02-23T15:08:17.115Z,6.72
2023-02-23T15:10:46.300Z,7.10
2023-02-23T15:13:32.662Z,7.85
2023-02-23T15:16:05.375Z,5.90
2023-02-23T15:19:28.365Z,4.30
2023-02-23T15:21:57.459Z,6.60
2023-02-23T15:24:47.390Z,5.55
2023-02-23T15:27:44.143Z,4.97
2023-02-23T15:30:32.905Z,4.85
2023-02-23T15:33:13.818Z,4.07
2023-02-23T15:35:55.318Z,3.88
2023-02-23T15:38:42.956Z,3.83
2023-02-23T15:41:29.258Z,4.35
2023-02-23T15:44:05.639Z,4.25
2023-02-23T15:46:34.236Z,4.80
2023-02-23T15:49:03.507Z,4.85
2023-02-23T15:51:38.214Z,5.68
2023-02-23T15:54:16.312Z,5.78
2023-02-23T15:56:47.014Z,5.45
2023-02-23T15:59:23.957Z,5.68
2023-02-23T16:01:54.056Z,5.80
2023-02-23T16:04:25.874Z,3.65
2023-02-23T16:06:55.832Z,3.28
2023-02-23T16:09:24.189Z,3.10
2023-02-23T16:11:55.318Z,3.15
2023-02-23T16:14:24.318Z,2.10
2023-02-23T16:17:09.913Z,2.63
2023-02-23T16:19:41.062Z,2.10
2023-02-23T16:22:19.095Z,2.33
2023-02-23T16:24:48.942Z,2.28
2023-02-23T16:27:16.463Z,2.40
2023-02-23T16:29:43.218Z,2.30
2023-02-23T16:32:21.311Z,2.58
2023-02-23T16:34:51.127Z,2.70
2023-02-23T16:37:31.304Z,3.00
2023-02-23T16:39:58.087Z,3.45
2023-02-23T16:42:34.909Z,3.35
2023-02-23T16:45:02.124Z,3.10
2023-02-23T16:47:36.333Z,3.10
2023-02-23T16:50:20.462Z,3.05
2023-02-23T16:52:51.710Z,3.05
2023-02-23T16:55:25.698Z,3.45
2023-02-23T16:58:00.378Z,3.30
2023-02-23T17:00:30.321Z,3.50
2023-02-23T17:02:58.621Z,3.38
2023-02-23T17:05:25.391Z,3.85
2023-02-23T17:07:53.005Z,3.33
2023-02-23T17:10:30.493Z,3.83
2023-02-23T17:13:00.109Z,4.10
2023-02-23T17:15:29.142Z,3.80
2023-02-23T17:17:56.582Z,3.65
2023-02-23T17:20:26.921Z,3.58
2023-02-23T17:22:56.192Z,3.97
2023-02-23T17:25:26.559Z,3.63
2023-02-23T17:27:54.432Z,3.90
2023-02-23T17:30:22.296Z,3.72
2023-02-23T17:32:50.797Z,4.55
2023-02-23T17:35:18.722Z,4.53
2023-02-23T17:37:46.668Z,3.72
2023-02-23T17:40:16.548Z,3.95
2023-02-23T17:42:43.406Z,3.10
2023-02-23T17:45:10.644Z,3.58
2023-02-23T17:47:40.948Z,3.00
2023-02-23T17:50:08.068Z,3.30
2023-02-23T17:52:34.881Z,3.30
2023-02-23T17:55:01.783Z,3.08
2023-02-23T17:57:30.553Z,3.30
2023-02-23T17:59:57.582Z,3.42
2023-02-23T18:02:25.002Z,3.38
2023-02-23T18:04:52.257Z,3.33
2023-02-23T18:07:21.022Z,3.53
2023-02-23T18:09:50.044Z,3.40
2023-02-23T18:12:19.137Z,3.40
2023-02-23T18:14:46.565Z,3.67
2023-02-23T18:17:14.816Z,3.88
2023-02-23T18:19:42.162Z,4.20
2023-02-23T18:22:09.244Z,4.65
2023-02-23T18:24:37.112Z,5.10
2023-02-23T18:27:04.384Z,6.05
2023-02-23T18:29:34.112Z,5.85
2023-02-23T18:32:02.703Z,5.07
2023-02-23T18:34:30.056Z,8.13
2023-02-23T18:37:03.387Z,6.65
2023-02-23T18:39:33.520Z,5.60
2023-02-23T18:42:00.721Z,6.22
2023-02-23T18:44:27.690Z,5.00
2023-02-23T18:46:55.083Z,5.45
2023-02-23T18:49:23.968Z,5.20
2023-02-23T18:51:50.758Z,4.93
2023-02-23T18:54:18.497Z,5.00
2023-02-23T18:56:46.966Z,5.35
2023-02-23T18:59:14.304Z,7.00
2023-02-23T19:01:45.301Z,6.30
2023-02-23T19:04:12.818Z,6.45
2023-02-23T19:06:44.942Z,6.78
2023-02-23T19:09:14.250Z,8.50
2023-02-23T19:11:42.821Z,10.10
2023-02-23T19:14:13.455Z,9.32
2023-02-23T19:16:41.156Z,8.85
2023-02-23T19:19:08.314Z,7.25
2023-02-23T19:21:35.913Z,6.68
2023-02-23T19:24:04.042Z,6.18
2023-02-23T19:26:31.930Z,6.20
2023-02-23T19:28:58.767Z,5.85
2023-02-23T19:31:26.568Z,6.35
2023-02-23T19:33:55.966Z,5.50
2023-02-23T19:36:29.615Z,5.90
2023-02-23T19:39:06.097Z,4.90
2023-02-23T19:41:34.127Z,5.60
2023-02-23T19:44:01.311Z,6.00
2023-02-23T19:46:28.513Z,5.80
2023-02-23T19:48:56.099Z,5.55
2023-02-23T19:51:23.456Z,4.90
2023-02-23T19:53:54.310Z,5.38
2023-02-23T19:56:21.694Z,5.38
2023-02-23T19:58:49.348Z,5.03
2023-02-23T20:01:19.120Z,5.03
2023-02-23T20:03:49.541Z,5.32
2023-02-23T20:06:17.997Z,4.80
2023-02-23T20:08:45.283Z,4.72
2023-02-23T20:11:12.406Z,5.32
2023-02-23T20:13:40.378Z,5.10
2023-02-23T20:16:09.838Z,5.20
2023-02-23T20:18:38.683Z,5.03
2023-02-23T20:21:11.092Z,5.47
2023-02-23T20:23:37.859Z,5.50
2023-02-23T20:26:06.366Z,5.80
2023-02-23T20:28:33.886Z,6.70
2023-02-23T20:31:01.741Z,5.82
2023-02-23T20:33:32.005Z,5.47
2023-02-23T20:35:58.843Z,5.38
2023-02-23T20:38:25.517Z,6.22
2023-02-23T20:40:52.964Z,6.18
2023-02-23T20:43:19.778Z,5.90
2023-02-23T20:45:46.768Z,6.00
2023-02-23T20:48:13.567Z,6.07
2023-02-23T20:50:42.409Z,6.72
2023-02-23T20:53:09.143Z,7.55
2023-02-23T20:55:36.928Z,7.18
2023-02-23T20:58:05.230Z,8.20
2023-02-23T21:00:32.350Z,7.90
2023-02-23T21:03:01.476Z,7.15
2023-02-23T21:05:31.030Z,7.78
2023-02-23T21:08:02.021Z,6.35
2023-02-23T21:10:35.611Z,6.13
2023-02-23T21:13:02.760Z,7.80
2023-02-23T21:15:30.097Z,8.60
2023-02-23T21:17:58.519Z,8.85
2023-02-23T21:20:27.903Z,9.52
2023-02-23T21:22:55.581Z,10.65
2023-02-23T21:25:24.754Z,10.80
2023-02-23T21:27:52.135Z,10.20
2023-02-23T21:30:22.591Z,11.27
2023-02-23T21:32:52.015Z,13.27
2023-02-23T21:35:19.777Z,12.75
2023-02-23T21:37:47.394Z,13.23
2023-02-23T21:40:20.630Z,13.38
2023-02-23T21:42:47.968Z,12.60
2023-02-23T21:45:14.956Z,13.68
2023-02-23T21:47:44.624Z,13.43
2023-02-23T21:50:15.142Z,12.82
2023-02-23T21:52:45.375Z,14.05
2023-02-23T21:55:21.236Z,13.75
2023-02-23T21:57:48.853Z,14.63
2023-02-23T22:00:16.468Z,14.45
2023-02-23T22:02:46.294Z,9.60
2023-02-23T22:05:15.343Z,10.07
2023-02-23T22:07:48.268Z,10.10
2023-02-23T22:10:15.771Z,10.35
2023-02-23T22:12:42.518Z,10.00
2023-02-23T22:15:12.574Z,10.57
2023-02-23T22:17:39.256Z,9.50
2023-02-23T22:20:07.412Z,8.63
2023-02-23T22:22:36.190Z,8.32
2023-02-23T22:25:07.580Z,8.23
2023-02-23T22:27:34.302Z,7.35
2023-02-23T22:30:01.794Z,9.25
2023-02-23T22:32:32.779Z,7.68
2023-02-23T22:35:00.897Z,7.47
2023-02-23T22:37:32.101Z,7.30
2023-02-23T22:40:16.529Z,6.75
2023-02-23T22:42:49.229Z,6.65
2023-02-23T22:45:16.626Z,7.22
2023-02-23T22:47:43.356Z,8.07
2023-02-23T22:50:12.138Z,11.65
2023-02-23T22:52:38.941Z,12.35
2023-02-23T22:55:06.067Z,13.68
2023-02-23T22:57:32.889Z,11.68
2023-02-23T23:00:08.291Z,9.00
2023-02-23T23:02:36.229Z,10.25
2023-02-23T23:05:03.212Z,11.02
2023-02-23T23:07:31.168Z,10.52
2023-02-23T23:09:58.987Z,10.23
2023-02-23T23:12:28.042Z,8.32
2023-02-23T23:15:01.358Z,8.57
2023-02-23T23:17:31.971Z,8.38
2023-02-23T23:20:00.298Z,7.95
2023-02-23T23:22:27.588Z,8.23
2023-02-23T23:24:54.372Z,8.55
2023-02-23T23:27:21.498Z,9.10
2023-02-23T23:29:48.876Z,8.60
2023-02-23T23:32:19.256Z,9.00
2023-02-23T23:34:49.556Z,8.63
2023-02-23T23:37:18.149Z,8.63
2023-02-23T23:39:45.422Z,8.25
2023-02-23T23:42:12.881Z,8.45
2023-02-23T23:44:39.668Z,9.00
2023-02-23T23:47:06.487Z,8.32
2023-02-23T23:49:39.683Z,8.55
2023-02-23T23:52:06.418Z,8.00
2023-02-23T23:54:38.970Z,6.82
2023-02-23T23:57:06.658Z,7.32
2023-02-23T23:59:35.204Z,8.18
